createdAt,value
2019-05-12T00:00:14.138Z,0
2019-05-12T00:00:58.894Z,0
2019-05-12T00:01:39.319Z,0
2019-05-12T00:02:19.671Z,0
2019-05-12T00:03:00.077Z,0
2019-05-12T00:03:42.639Z,0
2019-05-12T00:04:30.975Z,0
2019-05-12T00:08:01.532Z,0
2019-05-12T00:08:42.127Z,0
2019-05-12T00:09:24.206Z,0
2019-05-12T00:12:11.163Z,0
2019-05-12T00:14:59.616Z,0
2019-05-12T00:15:40.350Z,0
2019-05-12T00:16:29.596Z,0
2019-05-12T00:17:10.496Z,0
2019-05-12T00:17:54.557Z,0
2019-05-12T00:20:01.468Z,0
2019-05-12T00:21:30.776Z,0
2019-05-12T00:23:01.920Z,0
2019-05-12T00:23:42.226Z,0
2019-05-12T00:24:23.557Z,0
2019-05-12T00:25:03.886Z,0
2019-05-12T00:26:30.304Z,0
2019-05-12T00:30:41.062Z,0
2019-05-12T00:31:25.026Z,0
2019-05-12T00:33:39.640Z,0
2019-05-12T00:34:20.010Z,0
2019-05-12T00:35:02.929Z,0
2019-05-12T00:35:43.289Z,0
2019-05-12T00:36:23.645Z,0
2019-05-12T00:37:04.198Z,0
2019-05-12T00:40:23.201Z,0
2019-05-12T00:41:03.207Z,0
2019-05-12T00:41:49.625Z,0
2019-05-12T00:42:30.282Z,0
2019-05-12T00:43:10.610Z,0
2019-05-12T00:43:51.113Z,0
2019-05-12T00:44:31.471Z,0
2019-05-12T00:45:11.877Z,0
2019-05-12T00:45:52.283Z,0
2019-05-12T00:46:38.353Z,0
2019-05-12T00:49:42.251Z,0
2019-05-12T00:50:29.151Z,0
2019-05-12T00:51:11.309Z,0
2019-05-12T00:51:53.309Z,0
2019-05-12T00:52:38.487Z,0
2019-05-12T00:53:18.824Z,0
2019-05-12T00:53:58.156Z,0
2019-05-12T01:01:48.855Z,0
2019-05-12T01:02:29.308Z,0
2019-05-12T01:03:09.645Z,0
2019-05-12T01:03:50.038Z,0
2019-05-12T01:04:34.008Z,0
2019-05-12T01:05:12.435Z,0
2019-05-12T01:08:39.207Z,0
2019-05-12T01:09:21.964Z,0
2019-05-12T01:10:04.727Z,0
2019-05-12T01:10:42.606Z,0
2019-05-12T01:11:23.952Z,0
2019-05-12T01:22:50.633Z,0
2019-05-12T01:23:29.855Z,0
2019-05-12T01:24:10.070Z,0
2019-05-12T01:24:50.458Z,0
2019-05-12T01:26:58.163Z,0
2019-05-12T01:27:38.285Z,0
2019-05-12T01:28:18.427Z,0
2019-05-12T01:31:03.559Z,0
2019-05-12T01:31:43.943Z,0
2019-05-12T01:32:24.397Z,0
2019-05-12T01:33:04.970Z,0
2019-05-12T01:33:45.515Z,0
2019-05-12T01:34:27.864Z,0
2019-05-12T01:35:09.865Z,0
2019-05-12T01:35:53.569Z,0
2019-05-12T01:36:33.906Z,0
2019-05-12T01:37:17.903Z,0
2019-05-12T01:37:58.695Z,0
2019-05-12T01:38:37.907Z,0
2019-05-12T01:39:18.809Z,0
2019-05-12T01:42:03.483Z,0
2019-05-12T01:42:43.863Z,0
2019-05-12T01:43:24.223Z,0
2019-05-12T01:44:08.779Z,0
2019-05-12T01:44:48.145Z,0
2019-05-12T01:45:28.686Z,0
2019-05-12T01:46:08.122Z,0
2019-05-12T01:46:48.481Z,0
2019-05-12T01:48:59.062Z,0
2019-05-12T01:49:38.207Z,0
2019-05-12T01:53:43.681Z,0
2019-05-12T01:54:27.835Z,0
2019-05-12T01:55:08.564Z,0
2019-05-12T01:55:49.147Z,0
2019-05-12T02:00:28.819Z,0
2019-05-12T02:01:12.601Z,0
2019-05-12T02:01:53.050Z,0
2019-05-12T02:03:13.856Z,0
2019-05-12T02:03:54.245Z,0
2019-05-12T02:04:34.652Z,0
2019-05-12T02:05:15.017Z,0
2019-05-12T02:05:57.801Z,0
2019-05-12T02:06:38.352Z,0
2019-05-12T02:07:58.309Z,0
2019-05-12T02:08:38.337Z,0
2019-05-12T02:09:18.650Z,0
2019-05-12T02:09:58.412Z,0
2019-05-12T02:10:38.869Z,0
2019-05-12T02:11:18.550Z,0
2019-05-12T02:16:47.575Z,0
2019-05-12T02:17:28.181Z,0
2019-05-12T02:18:08.994Z,0
2019-05-12T02:18:52.213Z,0
2019-05-12T02:20:53.856Z,0
2019-05-12T02:21:34.264Z,0
2019-05-12T02:27:44.540Z,0
2019-05-12T02:28:28.612Z,0
2019-05-12T02:29:07.850Z,0
2019-05-12T02:33:50.371Z,0
2019-05-12T02:34:30.717Z,0
2019-05-12T02:35:11.204Z,0
2019-05-12T02:35:54.276Z,0
2019-05-12T02:36:34.093Z,0
2019-05-12T02:37:15.284Z,0
2019-05-12T02:37:54.960Z,0
2019-05-12T02:38:33.767Z,0
2019-05-12T02:39:16.912Z,0
2019-05-12T02:44:44.310Z,0
2019-05-12T02:47:34.654Z,0
2019-05-12T02:50:39.866Z,0
2019-05-12T02:51:24.778Z,0
2019-05-12T02:52:04.810Z,0
2019-05-12T02:52:45.878Z,0
2019-05-12T02:53:26.173Z,0
2019-05-12T02:54:06.563Z,0
2019-05-12T02:54:55.470Z,0
2019-05-12T02:55:27.407Z,0
2019-05-12T02:56:07.726Z,0
2019-05-12T03:02:54.706Z,0
2019-05-12T03:03:35.297Z,0
2019-05-12T03:04:14.792Z,0
2019-05-12T03:04:55.193Z,0
2019-05-12T03:05:35.568Z,0
2019-05-12T03:06:15.929Z,0
2019-05-12T03:06:56.347Z,0
2019-05-12T03:09:44.652Z,0
2019-05-12T03:10:25.219Z,0
2019-05-12T03:11:05.932Z,0
2019-05-12T03:11:44.897Z,0
2019-05-12T03:12:25.666Z,0
2019-05-12T03:13:05.536Z,0
2019-05-12T03:13:45.873Z,0
2019-05-12T03:14:26.269Z,0
2019-05-12T03:15:06.643Z,0
2019-05-12T03:15:47.030Z,0
2019-05-12T03:16:27.462Z,0
2019-05-12T03:21:54.737Z,0
2019-05-12T03:22:35.217Z,0
2019-05-12T03:23:15.390Z,0
2019-05-12T03:23:57.885Z,0
2019-05-12T03:29:25.941Z,0
2019-05-12T03:30:06.145Z,0
2019-05-12T03:30:48.175Z,0
2019-05-12T03:31:31.174Z,0
2019-05-12T03:32:08.471Z,0
2019-05-12T03:32:48.009Z,0
2019-05-12T03:33:34.197Z,0
2019-05-12T03:34:10.684Z,0
2019-05-12T03:41:05.591Z,0
2019-05-12T03:41:47.605Z,0
2019-05-12T03:49:48.345Z,0
2019-05-12T03:50:45.953Z,0
2019-05-12T03:51:36.268Z,0
2019-05-12T03:52:24.500Z,0
2019-05-12T03:54:58.129Z,0
2019-05-12T03:55:42.101Z,0
2019-05-12T03:56:18.955Z,0
2019-05-12T03:59:44.930Z,0
2019-05-12T04:00:24.633Z,0
2019-05-12T04:01:04.576Z,0
2019-05-12T04:01:44.970Z,0
2019-05-12T04:02:25.172Z,0
2019-05-12T04:03:05.271Z,0
2019-05-12T04:03:45.946Z,0
2019-05-12T04:04:26.586Z,0
2019-05-12T04:05:06.814Z,0
2019-05-12T04:05:47.128Z,5
2019-05-12T04:08:34.747Z,10
2019-05-12T04:09:15.662Z,10
2019-05-12T04:09:55.283Z,10
2019-05-12T04:10:36.037Z,10
2019-05-12T04:11:24.901Z,10
2019-05-12T04:12:05.201Z,10
2019-05-12T04:12:45.288Z,10
2019-05-12T04:13:26.634Z,10
2019-05-12T04:14:06.473Z,15
2019-05-12T04:14:46.751Z,10
2019-05-12T04:15:27.137Z,15
2019-05-12T04:16:07.524Z,20
2019-05-12T04:24:14.687Z,10
2019-05-12T04:24:55.380Z,10
2019-05-12T04:25:50.787Z,10
2019-05-12T05:10:49.617Z,30
2019-05-12T05:11:30.003Z,30
2019-05-12T05:12:10.424Z,60
2019-05-12T05:18:14.456Z,35
2019-05-12T05:18:54.785Z,35
2019-05-12T05:19:35.217Z,35
2019-05-12T05:20:15.637Z,35
2019-05-12T05:20:55.961Z,45
2019-05-12T05:21:36.410Z,60
2019-05-12T05:22:16.767Z,45
2019-05-12T05:22:57.223Z,35
2019-05-12T05:23:37.630Z,35
2019-05-12T05:32:24.559Z,20
2019-05-12T05:33:07.827Z,20
2019-05-12T05:36:36.259Z,25
2019-05-12T05:37:17.623Z,25
2019-05-12T05:42:04.610Z,30
2019-05-12T05:42:44.744Z,30
2019-05-12T05:43:25.207Z,30
2019-05-12T05:44:05.596Z,25
2019-05-12T05:44:45.971Z,20
2019-05-12T05:45:27.972Z,15
2019-05-12T05:46:08.372Z,15
2019-05-12T05:46:50.222Z,15
2019-05-12T05:47:29.051Z,15
2019-05-12T05:53:34.771Z,15
2019-05-12T05:54:15.673Z,15
2019-05-12T05:54:56.085Z,15
2019-05-12T05:55:36.482Z,20
2019-05-12T06:00:26.269Z,20
2019-05-12T06:01:07.709Z,20
2019-05-12T06:01:46.698Z,25
2019-05-12T06:02:31.378Z,25
2019-05-12T06:03:06.180Z,20
2019-05-12T06:03:46.339Z,20
2019-05-12T06:04:28.663Z,20
2019-05-12T06:05:09.070Z,20
2019-05-12T06:12:40.291Z,25
2019-05-12T06:13:15.976Z,20
2019-05-12T06:13:56.367Z,25
2019-05-12T06:14:36.797Z,25
2019-05-12T06:15:17.638Z,25
2019-05-12T06:18:44.942Z,245
2019-05-12T06:19:26.196Z,50
2019-05-12T06:20:05.699Z,45
2019-05-12T06:20:47.106Z,35
2019-05-12T06:21:28.992Z,35
2019-05-12T06:22:08.862Z,30
2019-05-12T06:22:53.104Z,30
2019-05-12T06:23:33.418Z,30
2019-05-12T06:24:15.114Z,30
2019-05-12T06:29:34.591Z,45
2019-05-12T06:30:15.008Z,45
2019-05-12T06:30:58.170Z,50
2019-05-12T06:31:35.694Z,45
2019-05-12T06:32:16.170Z,40
2019-05-12T06:32:56.545Z,40
2019-05-12T06:33:36.889Z,45
2019-05-12T06:34:20.935Z,45
2019-05-12T06:38:25.153Z,75
2019-05-12T06:39:05.317Z,75
2019-05-12T06:39:50.833Z,110
2019-05-12T06:40:30.688Z,90
2019-05-12T06:42:34.680Z,70
2019-05-12T06:43:15.346Z,75
2019-05-12T06:43:55.694Z,95
2019-05-12T06:44:36.142Z,290
2019-05-12T06:45:16.483Z,150
2019-05-12T06:45:57.043Z,145
2019-05-12T06:46:38.813Z,150
2019-05-12T06:47:19.210Z,455
2019-05-12T06:52:07.256Z,440
2019-05-12T06:52:48.956Z,185
2019-05-12T06:53:30.821Z,190
2019-05-12T06:54:11.916Z,120
2019-05-12T06:58:54.556Z,240
2019-05-12T06:59:34.915Z,235
2019-05-12T07:00:15.336Z,205
2019-05-12T07:00:55.734Z,295
2019-05-12T07:01:36.186Z,285
2019-05-12T07:02:17.581Z,175
2019-05-12T07:10:36.385Z,120
2019-05-12T07:11:07.693Z,100
2019-05-12T07:11:58.640Z,345
2019-05-12T07:12:33.437Z,80
2019-05-12T07:13:08.927Z,90
2019-05-12T07:19:57.902Z,185
2019-05-12T07:20:38.738Z,180
2019-05-12T07:21:19.791Z,190
2019-05-12T07:21:59.915Z,140
2019-05-12T07:22:44.061Z,110
2019-05-12T07:23:19.526Z,105
2019-05-12T07:24:00.329Z,105
2019-05-12T07:30:44.336Z,100
2019-05-12T07:31:24.644Z,90
2019-05-12T07:32:21.644Z,105
2019-05-12T07:33:00.882Z,115
2019-05-12T07:35:45.693Z,85
2019-05-12T07:36:26.995Z,160
2019-05-12T07:40:37.324Z,55
2019-05-12T07:41:15.122Z,55
2019-05-12T07:41:55.669Z,55
2019-05-12T07:42:39.275Z,55
2019-05-12T07:43:20.423Z,55
2019-05-12T07:44:00.720Z,60
2019-05-12T07:44:39.877Z,65
2019-05-12T07:45:22.115Z,75
2019-05-12T07:49:33.931Z,70
2019-05-12T07:50:09.713Z,75
2019-05-12T07:50:50.105Z,80
2019-05-12T07:51:30.206Z,140
2019-05-12T07:52:08.400Z,120
2019-05-12T07:52:48.838Z,100
2019-05-12T07:53:29.189Z,95
2019-05-12T07:57:50.852Z,100
2019-05-12T07:58:18.916Z,50
2019-05-12T07:58:57.373Z,45
2019-05-12T07:59:40.724Z,45
2019-05-12T08:00:22.795Z,50
2019-05-12T08:01:02.269Z,50
2019-05-12T08:01:45.178Z,55
2019-05-12T08:05:04.903Z,95
2019-05-12T08:05:45.481Z,95
2019-05-12T08:06:32.432Z,100
2019-05-12T08:10:35.215Z,105
2019-05-12T08:11:15.593Z,105
2019-05-12T08:11:56.039Z,105
2019-05-12T08:12:36.445Z,105
2019-05-12T08:13:18.652Z,100
2019-05-12T08:13:59.134Z,105
2019-05-12T08:19:26.473Z,100
2019-05-12T08:20:05.700Z,100
2019-05-12T08:20:46.214Z,105
2019-05-12T08:21:26.522Z,105
2019-05-12T08:22:07.115Z,105
2019-05-12T08:22:47.538Z,85
2019-05-12T08:23:27.933Z,85
2019-05-12T08:26:59.447Z,85
2019-05-12T08:27:39.036Z,85
2019-05-12T08:28:18.888Z,80
2019-05-12T08:28:55.125Z,75
2019-05-12T08:29:35.561Z,75
2019-05-12T08:30:17.820Z,75
2019-05-12T08:30:58.388Z,80
2019-05-12T08:31:40.722Z,80
2019-05-12T08:32:20.297Z,85
2019-05-12T08:38:24.922Z,80
2019-05-12T08:39:06.171Z,75
2019-05-12T08:39:53.101Z,70
2019-05-12T08:40:28.518Z,65
2019-05-12T08:41:08.731Z,65
2019-05-12T08:46:34.569Z,95
2019-05-12T08:47:15.372Z,95
2019-05-12T08:47:55.385Z,95
2019-05-12T08:48:35.810Z,105
2019-05-12T08:49:16.526Z,110
2019-05-12T08:49:58.646Z,110
2019-05-12T08:50:37.453Z,105
2019-05-12T08:51:20.037Z,95
2019-05-12T08:52:00.325Z,90
2019-05-12T08:56:44.900Z,70
2019-05-12T08:57:25.328Z,70
2019-05-12T08:58:05.754Z,75
2019-05-12T08:58:51.326Z,75
2019-05-12T08:59:28.579Z,75
2019-05-12T09:00:09.013Z,70
2019-05-12T09:03:34.554Z,70
2019-05-12T09:04:18.312Z,70
2019-05-12T09:04:58.537Z,70
2019-05-12T09:09:04.788Z,65
2019-05-12T09:09:46.874Z,65
2019-05-12T09:10:27.206Z,70
2019-05-12T09:11:07.924Z,85
2019-05-12T09:11:48.301Z,105
2019-05-12T09:12:28.905Z,75
2019-05-12T09:13:09.252Z,75
2019-05-12T09:19:16.125Z,65
2019-05-12T09:20:03.447Z,65
2019-05-12T09:20:39.388Z,70
2019-05-12T09:21:17.572Z,65
2019-05-12T09:21:58.011Z,65
2019-05-12T09:26:00.370Z,60
2019-05-12T09:26:40.443Z,60
2019-05-12T09:27:20.835Z,70
2019-05-12T09:30:05.268Z,65
2019-05-12T09:30:45.694Z,65
2019-05-12T09:31:29.381Z,65
2019-05-12T09:36:19.629Z,70
2019-05-12T09:36:59.439Z,60
2019-05-12T09:37:38.566Z,55
2019-05-12T09:38:21.153Z,55
2019-05-12T09:39:01.386Z,55
2019-05-12T09:39:42.435Z,50
2019-05-12T09:44:26.236Z,65
2019-05-12T09:45:05.887Z,70
2019-05-12T09:45:51.449Z,65
2019-05-12T09:46:28.238Z,70
2019-05-12T09:47:07.374Z,80
2019-05-12T09:47:45.660Z,75
2019-05-12T09:48:26.087Z,70
2019-05-12T09:49:06.526Z,70
2019-05-12T09:49:46.849Z,70
2019-05-12T09:50:27.360Z,65
2019-05-12T09:53:55.398Z,55
2019-05-12T09:54:40.565Z,50
2019-05-12T09:55:14.836Z,50
2019-05-12T09:55:58.453Z,50
2019-05-12T09:56:36.995Z,55
2019-05-12T10:04:03.442Z,95
2019-05-12T10:04:43.741Z,70
2019-05-12T10:05:23.993Z,65
2019-05-12T10:06:05.093Z,60
2019-05-12T10:06:45.461Z,55
2019-05-12T10:07:26.010Z,55
2019-05-12T10:12:13.669Z,85
2019-05-12T10:12:54.089Z,85
2019-05-12T10:13:34.544Z,85
2019-05-12T10:14:14.938Z,85
2019-05-12T10:14:55.481Z,85
2019-05-12T10:15:35.876Z,85
2019-05-12T10:16:16.259Z,85
2019-05-12T10:16:56.737Z,75
2019-05-12T10:17:37.379Z,65
2019-05-12T10:24:23.026Z,60
2019-05-12T10:25:04.001Z,60
2019-05-12T10:25:44.531Z,80
2019-05-12T10:26:24.317Z,95
2019-05-12T11:09:34.799Z,75
2019-05-12T11:10:19.812Z,60
2019-05-12T11:11:00.873Z,70
2019-05-12T11:13:05.692Z,60
2019-05-12T11:13:46.080Z,50
2019-05-12T11:14:26.179Z,50
2019-05-12T11:15:06.578Z,50
2019-05-12T11:19:54.062Z,55
2019-05-12T11:20:34.017Z,50
2019-05-12T11:21:12.249Z,50
2019-05-12T11:23:26.773Z,75
2019-05-12T11:24:07.315Z,75
2019-05-12T11:24:47.848Z,75
2019-05-12T11:30:51.784Z,75
2019-05-12T11:31:33.428Z,60
2019-05-12T11:32:14.007Z,50
2019-05-12T11:32:53.998Z,80
2019-05-12T11:33:34.100Z,80
2019-05-12T11:34:13.887Z,80
2019-05-12T11:34:54.374Z,80
2019-05-12T11:35:35.115Z,75
2019-05-12T11:36:16.615Z,75
2019-05-12T11:42:23.818Z,45
2019-05-12T11:43:04.027Z,50
2019-05-12T11:43:42.837Z,75
2019-05-12T11:44:23.326Z,75
2019-05-12T11:45:03.623Z,50
2019-05-12T11:45:44.245Z,70
2019-05-12T11:46:24.647Z,50
2019-05-12T11:52:33.351Z,75
2019-05-12T11:53:13.791Z,50
2019-05-12T11:53:53.879Z,45
2019-05-12T11:54:34.706Z,60
2019-05-12T11:55:15.066Z,45
2019-05-12T11:55:56.471Z,50
2019-05-12T12:00:44.069Z,55
2019-05-12T12:01:25.416Z,55
2019-05-12T12:06:13.723Z,75
2019-05-12T12:06:54.356Z,75
2019-05-12T12:07:38.835Z,75
2019-05-12T12:08:14.966Z,75
2019-05-12T12:08:55.469Z,80
2019-05-12T12:09:35.786Z,70
2019-05-12T12:10:16.128Z,55
2019-05-12T12:10:56.627Z,50
2019-05-12T12:16:23.555Z,45
2019-05-12T12:17:03.922Z,45
2019-05-12T12:17:45.294Z,55
2019-05-12T12:18:25.684Z,50
2019-05-12T12:19:06.162Z,70
2019-05-12T12:21:14.182Z,45
2019-05-12T12:24:43.490Z,50
2019-05-12T12:26:03.954Z,55
2019-05-12T12:26:44.469Z,55
2019-05-12T12:27:24.020Z,55
2019-05-12T12:28:05.350Z,60
2019-05-12T12:28:45.766Z,45
2019-05-12T12:29:26.235Z,55
2019-05-12T12:30:16.651Z,45
2019-05-12T12:32:16.784Z,55
2019-05-12T12:32:56.571Z,70
2019-05-12T12:33:36.637Z,70
2019-05-12T12:34:22.901Z,70
2019-05-12T12:34:55.488Z,45
2019-05-12T12:38:22.910Z,80
2019-05-12T12:40:37.941Z,70
2019-05-12T12:41:18.562Z,70
2019-05-12T12:42:00.975Z,75
2019-05-12T12:44:04.620Z,45
2019-05-12T12:44:44.660Z,50
2019-05-12T12:45:24.907Z,45
2019-05-12T12:46:10.457Z,40
2019-05-12T12:46:51.110Z,40
2019-05-12T12:52:53.339Z,70
2019-05-12T12:53:34.328Z,70
2019-05-12T12:54:13.289Z,70
2019-05-12T12:54:59.200Z,70
2019-05-12T12:58:26.777Z,75
2019-05-12T12:59:10.074Z,75
2019-05-12T12:59:50.953Z,70
2019-05-12T13:00:31.925Z,50
2019-05-12T13:05:13.549Z,40
2019-05-12T13:05:54.650Z,40
2019-05-12T13:06:35.126Z,40
2019-05-12T13:07:15.658Z,40
2019-05-12T13:07:56.072Z,45
2019-05-12T13:08:36.450Z,45
2019-05-12T13:09:23.858Z,45
2019-05-12T13:14:04.056Z,65
2019-05-12T13:14:44.366Z,40
2019-05-12T13:15:24.250Z,65
2019-05-12T13:16:05.656Z,65
2019-05-12T13:16:49.290Z,60
2019-05-12T13:23:39.962Z,65
2019-05-12T13:24:14.110Z,65
2019-05-12T13:24:58.072Z,45
2019-05-12T13:25:38.712Z,40
2019-05-12T13:31:08.858Z,45
2019-05-12T13:31:48.275Z,45
2019-05-12T13:39:16.286Z,65
2019-05-12T13:39:56.584Z,50
2019-05-12T13:40:35.730Z,45
2019-05-12T13:41:15.718Z,40
2019-05-12T13:41:56.108Z,40
2019-05-12T13:42:35.735Z,45
2019-05-12T13:43:19.471Z,40
2019-05-12T13:48:04.022Z,40
2019-05-12T13:48:45.182Z,45
2019-05-12T13:49:29.902Z,60
2019-05-12T13:50:06.053Z,60
2019-05-12T13:51:26.968Z,60
2019-05-12T13:57:57.421Z,45
2019-05-12T13:58:34.361Z,45
2019-05-12T13:59:20.479Z,45
2019-05-12T14:01:57.352Z,40
2019-05-12T14:02:37.754Z,50
2019-05-12T14:03:20.084Z,60
2019-05-12T14:04:00.653Z,40
2019-05-12T14:06:46.958Z,60
2019-05-12T14:07:29.089Z,60
2019-05-12T14:08:09.479Z,60
2019-05-12T14:08:50.033Z,60
2019-05-12T14:09:30.429Z,60
2019-05-12T14:10:10.818Z,60
2019-05-12T14:11:34.222Z,55
2019-05-12T14:16:44.165Z,40
2019-05-12T14:17:23.473Z,40
2019-05-12T14:18:03.385Z,45
2019-05-12T14:21:26.013Z,60
2019-05-12T14:22:12.790Z,60
2019-05-12T14:22:50.236Z,60
2019-05-12T14:27:09.258Z,55
2019-05-12T14:27:49.732Z,55
2019-05-12T14:28:31.062Z,55
2019-05-12T14:31:59.594Z,55
2019-05-12T14:32:34.048Z,55
2019-05-12T14:33:14.459Z,55
2019-05-12T14:33:55.061Z,55
2019-05-12T14:36:39.268Z,55
2019-05-12T14:37:19.845Z,50
2019-05-12T14:38:00.123Z,40
2019-05-12T14:42:04.389Z,35
2019-05-12T14:42:47.649Z,35
2019-05-12T14:43:28.299Z,40
2019-05-12T14:44:55.322Z,40
2019-05-12T14:45:36.082Z,40
2019-05-12T14:46:16.730Z,40
2019-05-12T14:46:57.242Z,35
2019-05-12T14:47:38.998Z,35
2019-05-12T14:51:05.773Z,30
2019-05-12T14:51:46.158Z,30
2019-05-12T14:52:26.533Z,30
2019-05-12T14:53:07.248Z,30
2019-05-12T14:53:48.133Z,30
2019-05-12T14:54:34.263Z,30
2019-05-12T14:55:14.416Z,30
2019-05-12T14:55:54.845Z,30
2019-05-12T14:56:35.142Z,30
2019-05-12T14:57:15.679Z,30
2019-05-12T14:57:56.213Z,30
2019-05-12T14:58:36.581Z,30
2019-05-12T15:04:43.695Z,35
2019-05-12T15:05:27.020Z,35
2019-05-12T15:09:04.980Z,40
2019-05-12T15:09:45.324Z,40
2019-05-12T15:10:25.734Z,40
2019-05-12T15:13:51.634Z,35
2019-05-12T15:14:37.880Z,35
2019-05-12T15:16:41.765Z,35
2019-05-12T15:17:24.438Z,35
2019-05-12T15:18:08.905Z,35
2019-05-12T15:20:33.963Z,35
2019-05-12T15:21:17.982Z,35
2019-05-12T15:22:01.346Z,35
2019-05-12T15:22:42.792Z,35
2019-05-12T15:23:23.701Z,35
2019-05-12T15:23:59.851Z,35
2019-05-12T15:24:40.226Z,35
2019-05-12T15:25:20.945Z,35
2019-05-12T15:26:01.526Z,35
2019-05-12T15:30:43.583Z,30
2019-05-12T15:31:27.371Z,30
2019-05-12T15:32:08.673Z,30
2019-05-12T15:32:48.435Z,30
2019-05-12T15:33:28.900Z,30
2019-05-12T15:34:09.484Z,30
2019-05-12T15:34:49.925Z,30
2019-05-12T15:35:30.475Z,30
2019-05-12T15:36:10.933Z,30
2019-05-12T15:36:53.719Z,30
2019-05-12T15:37:34.837Z,30
2019-05-12T15:42:29.588Z,30
2019-05-12T15:43:09.927Z,35
2019-05-12T15:43:52.828Z,35
2019-05-12T15:45:16.350Z,30
2019-05-12T15:45:55.114Z,30
2019-05-12T15:46:40.919Z,30
2019-05-12T15:47:16.099Z,30
2019-05-12T15:47:56.536Z,30
2019-05-12T15:48:37.181Z,35
2019-05-12T15:49:26.124Z,35
2019-05-12T15:50:05.204Z,30
2019-05-12T15:50:46.504Z,30
2019-05-12T15:54:53.966Z,40
2019-05-12T15:55:34.593Z,40
2019-05-12T15:56:19.334Z,40
2019-05-12T15:56:55.720Z,40
2019-05-12T15:58:15.273Z,40
2019-05-12T15:59:00.701Z,40
2019-05-12T15:59:36.403Z,40
2019-05-12T16:00:17.285Z,40
2019-05-12T16:00:58.233Z,40
2019-05-12T16:02:25.347Z,40
2019-05-12T16:07:14.185Z,35
2019-05-12T16:07:56.966Z,35
2019-05-12T16:10:26.030Z,35
2019-05-12T16:11:07.529Z,35
2019-05-12T16:11:48.177Z,35
2019-05-12T16:13:10.721Z,35
2019-05-12T16:13:54.523Z,35
2019-05-12T16:14:36.617Z,40
2019-05-12T16:15:19.121Z,40
2019-05-12T16:18:05.523Z,40
2019-05-12T16:18:46.543Z,40
2019-05-12T16:20:14.099Z,40
2019-05-12T16:20:58.810Z,40
2019-05-12T16:21:35.452Z,40
2019-05-12T16:23:38.565Z,40
2019-05-12T16:24:18.936Z,35
2019-05-12T16:24:59.583Z,35
2019-05-12T16:25:40.169Z,35
2019-05-12T16:26:20.861Z,35
2019-05-12T16:27:03.559Z,35
2019-05-12T16:30:28.058Z,35
2019-05-12T17:09:03.446Z,15
2019-05-12T17:09:46.390Z,15
2019-05-12T17:10:28.688Z,15
2019-05-12T17:11:23.917Z,15
2019-05-12T17:11:52.725Z,15
2019-05-12T17:14:02.100Z,15
2019-05-12T17:14:45.465Z,15
2019-05-12T17:15:23.386Z,15
2019-05-12T17:16:01.152Z,15
2019-05-12T17:17:28.337Z,15
2019-05-12T17:18:13.317Z,15
2019-05-12T17:18:53.317Z,15
2019-05-12T17:21:38.280Z,10
2019-05-12T17:22:19.275Z,10
2019-05-12T17:23:00.494Z,10
2019-05-12T17:23:40.892Z,10
2019-05-12T17:24:34.682Z,10
2019-05-12T17:25:18.989Z,10
2019-05-12T17:26:04.207Z,10
2019-05-12T17:26:54.205Z,10
2019-05-12T17:27:35.832Z,10
2019-05-12T17:29:43.485Z,10
2019-05-12T17:31:08.551Z,10
2019-05-12T17:31:50.045Z,10
2019-05-12T17:34:06.258Z,10
2019-05-12T17:34:50.460Z,10
2019-05-12T17:35:34.823Z,10
2019-05-12T17:37:41.279Z,10
2019-05-12T17:38:22.363Z,10
2019-05-12T17:40:30.914Z,10
2019-05-12T17:41:17.246Z,10
2019-05-12T17:41:58.909Z,10
2019-05-12T17:48:02.642Z,15
2019-05-12T17:48:42.680Z,15
2019-05-12T17:49:31.071Z,15
2019-05-12T17:50:13.609Z,15
2019-05-12T17:50:53.891Z,15
2019-05-12T17:51:36.683Z,15
2019-05-12T17:52:23.195Z,15
2019-05-12T17:53:01.514Z,15
2019-05-12T17:53:43.987Z,15
2019-05-12T17:55:14.466Z,15
2019-05-12T17:58:17.789Z,15
2019-05-12T17:58:59.018Z,15
2019-05-12T17:59:49.368Z,15
2019-05-12T18:00:33.584Z,15
2019-05-12T18:01:14.296Z,15
2019-05-12T18:03:21.739Z,15
2019-05-12T18:03:56.942Z,15
2019-05-12T18:04:37.775Z,15
2019-05-12T18:05:18.052Z,15
2019-05-12T18:05:58.547Z,15
2019-05-12T18:06:39.703Z,15
2019-05-12T18:09:30.390Z,10
2019-05-12T18:10:50.176Z,10
2019-05-12T18:11:30.651Z,10
2019-05-12T18:17:02.334Z,10
2019-05-12T18:17:38.933Z,10
2019-05-12T18:18:23.864Z,10
2019-05-12T18:19:00.365Z,10
2019-05-12T18:19:40.698Z,10
2019-05-12T18:23:06.827Z,5
2019-05-12T18:23:47.255Z,5
2019-05-12T18:24:27.635Z,5
2019-05-12T18:25:08.006Z,5
2019-05-12T18:25:48.362Z,5
2019-05-12T18:26:29.567Z,5
2019-05-12T18:27:09.941Z,10
2019-05-12T18:27:51.012Z,10
2019-05-12T18:28:33.276Z,5
2019-05-12T18:29:11.108Z,5
2019-05-12T18:31:16.257Z,5
2019-05-12T18:32:04.600Z,5
2019-05-12T18:34:15.092Z,5
2019-05-12T18:35:08.768Z,5
2019-05-12T18:35:49.180Z,5
2019-05-12T18:36:29.608Z,5
2019-05-12T18:40:37.419Z,5
2019-05-12T18:42:00.744Z,5
2019-05-12T18:42:41.630Z,5
2019-05-12T18:43:24.092Z,5
2019-05-12T18:48:17.675Z,0
2019-05-12T18:51:34.824Z,0
2019-05-12T18:52:10.079Z,0
2019-05-12T18:52:51.621Z,0
2019-05-12T18:53:34.329Z,0
2019-05-12T18:59:33.522Z,0
2019-05-12T19:00:12.914Z,0
2019-05-12T19:00:53.818Z,0
2019-05-12T19:03:05.961Z,0
2019-05-12T19:03:47.752Z,0
2019-05-12T19:04:22.355Z,0
2019-05-12T19:08:39.240Z,0
2019-05-12T19:09:17.994Z,0
2019-05-12T19:10:00.133Z,0
2019-05-12T19:12:39.105Z,0
2019-05-12T19:13:19.593Z,0
2019-05-12T19:13:59.985Z,0
2019-05-12T19:15:24.790Z,0
2019-05-12T19:16:07.258Z,0
2019-05-12T19:16:45.491Z,0
2019-05-12T19:17:25.923Z,0
2019-05-12T19:19:45.789Z,0
2019-05-12T19:20:23.984Z,0
2019-05-12T19:21:04.561Z,0
2019-05-12T19:21:46.733Z,0
2019-05-12T19:22:26.856Z,0
2019-05-12T19:35:15.700Z,0
2019-05-12T19:36:03.989Z,0
2019-05-12T19:36:44.695Z,0
2019-05-12T19:37:26.131Z,0
2019-05-12T19:39:49.378Z,0
2019-05-12T19:40:26.256Z,0
2019-05-12T19:41:06.709Z,0
2019-05-12T19:41:47.044Z,0
2019-05-12T19:42:27.393Z,0
2019-05-12T19:43:08.430Z,0
2019-05-12T19:43:49.463Z,0
2019-05-12T19:46:10.576Z,0
2019-05-12T19:46:54.049Z,0
2019-05-12T19:47:38.123Z,0
2019-05-12T19:48:23.497Z,0
2019-05-12T19:49:06.754Z,0
2019-05-12T19:49:50.509Z,0
2019-05-12T19:52:25.057Z,0
2019-05-12T19:53:10.317Z,0
2019-05-12T19:53:52.668Z,0
2019-05-12T19:56:39.515Z,0
2019-05-12T19:57:21.722Z,0
2019-05-12T19:58:03.053Z,0
2019-05-12T19:58:43.188Z,0
2019-05-12T19:59:25.651Z,0
2019-05-12T20:03:30.209Z,0
2019-05-12T20:04:28.785Z,0
2019-05-12T20:04:56.543Z,0
2019-05-12T20:05:36.817Z,0
2019-05-12T20:06:17.074Z,0
2019-05-12T20:11:14.923Z,0
2019-05-12T20:11:53.869Z,0
2019-05-12T20:12:34.427Z,0
2019-05-12T20:20:35.885Z,0
2019-05-12T20:21:13.733Z,0
2019-05-12T20:21:54.268Z,0
2019-05-12T20:22:37.095Z,0
2019-05-12T20:26:56.762Z,0
2019-05-12T20:27:37.076Z,0
2019-05-12T20:28:21.066Z,0
2019-05-12T20:32:59.313Z,0
2019-05-12T20:33:40.603Z,0
2019-05-12T20:34:21.007Z,0
2019-05-12T20:36:33.463Z,0
2019-05-12T20:37:13.888Z,0
2019-05-12T20:37:54.359Z,0
2019-05-12T20:38:34.302Z,0
2019-05-12T20:39:16.636Z,0
2019-05-12T20:39:59.678Z,0
2019-05-12T20:40:37.510Z,0
2019-05-12T20:41:20.049Z,0
2019-05-12T20:42:00.485Z,0
2019-05-12T20:42:42.100Z,0
2019-05-12T20:43:15.642Z,0
2019-05-12T20:43:56.111Z,0
2019-05-12T20:44:36.534Z,0
2019-05-12T20:45:17.020Z,0
2019-05-12T20:56:21.626Z,0
2019-05-12T20:58:00.626Z,0
2019-05-12T20:58:50.689Z,0
2019-05-12T20:59:33.465Z,0
2019-05-12T21:00:14.099Z,0
2019-05-12T21:00:53.778Z,0
2019-05-12T21:05:37.344Z,0
2019-05-12T21:06:18.545Z,0
2019-05-12T21:06:58.118Z,0
2019-05-12T21:15:36.953Z,0
2019-05-12T21:16:17.104Z,0
2019-05-12T21:16:53.819Z,0
2019-05-12T21:17:40.259Z,0
2019-05-12T21:18:14.914Z,0
2019-05-12T21:19:01.991Z,0
2019-05-12T21:19:38.603Z,0
2019-05-12T21:26:37.826Z,0
2019-05-12T21:27:19.778Z,0
2019-05-12T21:28:02.326Z,0
2019-05-12T21:31:26.572Z,0
2019-05-12T21:32:11.847Z,0
2019-05-12T21:32:55.105Z,0
2019-05-12T21:33:31.268Z,0
2019-05-12T21:34:12.962Z,0
2019-05-12T21:34:52.201Z,0
2019-05-12T21:35:40.491Z,0
2019-05-12T21:36:23.843Z,0
2019-05-12T21:37:04.046Z,0
2019-05-12T21:37:45.380Z,0
2019-05-12T21:38:24.297Z,0
2019-05-12T21:41:09.997Z,0
2019-05-12T21:41:51.986Z,0
2019-05-12T21:43:54.529Z,0
2019-05-12T21:44:41.232Z,0
2019-05-12T21:45:20.091Z,0
2019-05-12T21:46:00.953Z,0
2019-05-12T21:46:38.435Z,0
2019-05-12T21:48:46.937Z,0
2019-05-12T21:49:29.096Z,0
2019-05-12T21:50:24.010Z,0